sensor_id;sensor_type;location;lat;lon;timestamp;temperature;humidity
24468;DHT22;12634;50.852;5.676;2023-05-10T00:02:12;14.40;99.90
24468;DHT22;12634;50.852;5.676;2023-05-10T00:04:39;14.40;99.90
24468;DHT22;12634;50.852;5.676;2023-05-10T00:07:06;14.40;99.90
24468;DHT22;12634;50.852;5.676;2023-05-10T00:09:34;14.40;99.90
24468;DHT22;12634;50.852;5.676;2023-05-10T00:12:01;14.40;99.90
24468;DHT22;12634;50.852;5.676;2023-05-10T00:14:29;14.40;99.90
24468;DHT22;12634;50.852;5.676;2023-05-10T00:16:56;14.40;99.90
24468;DHT22;12634;50.852;5.676;2023-05-10T00:19:23;14.40;99.90
24468;DHT22;12634;50.852;5.676;2023-05-10T00:21:50;14.30;99.90
24468;DHT22;12634;50.852;5.676;2023-05-10T00:24:17;14.30;99.90
24468;DHT22;12634;50.852;5.676;2023-05-10T00:26:45;14.30;99.90
24468;DHT22;12634;50.852;5.676;2023-05-10T00:29:12;14.30;99.90
24468;DHT22;12634;50.852;5.676;2023-05-10T00:31:39;14.20;99.90
24468;DHT22;12634;50.852;5.676;2023-05-10T00:34:06;14.20;99.90
24468;DHT22;12634;50.852;5.676;2023-05-10T00:36:34;14.30;99.90
24468;DHT22;12634;50.852;5.676;2023-05-10T00:39:01;14.20;99.90
24468;DHT22;12634;50.852;5.676;2023-05-10T00:41:29;14.20;99.90
24468;DHT22;12634;50.852;5.676;2023-05-10T00:43:59;14.20;99.90
24468;DHT22;12634;50.852;5.676;2023-05-10T00:46:27;14.30;99.90
24468;DHT22;12634;50.852;5.676;2023-05-10T00:48:55;14.20;99.90
24468;DHT22;12634;50.852;5.676;2023-05-10T00:51:22;14.20;99.90
24468;DHT22;12634;50.852;5.676;2023-05-10T00:53:49;14.30;99.90
24468;DHT22;12634;50.852;5.676;2023-05-10T00:56:17;14.20;99.90
24468;DHT22;12634;50.852;5.676;2023-05-10T00:58:46;14.30;99.90
24468;DHT22;12634;50.852;5.676;2023-05-10T01:01:14;14.30;99.90
24468;DHT22;12634;50.852;5.676;2023-05-10T01:03:42;14.30;99.90
24468;DHT22;12634;50.852;5.676;2023-05-10T01:06:09;14.20;99.90
24468;DHT22;12634;50.852;5.676;2023-05-10T01:08:37;14.20;99.90
24468;DHT22;12634;50.852;5.676;2023-05-10T01:11:04;14.20;99.90
24468;DHT22;12634;50.852;5.676;2023-05-10T01:13:33;14.20;99.90
24468;DHT22;12634;50.852;5.676;2023-05-10T01:16:02;14.20;99.90
24468;DHT22;12634;50.852;5.676;2023-05-10T01:18:31;14.20;99.90
24468;DHT22;12634;50.852;5.676;2023-05-10T01:21:07;14.20;99.90
24468;DHT22;12634;50.852;5.676;2023-05-10T01:24:21;14.20;99.90
24468;DHT22;12634;50.852;5.676;2023-05-10T01:27:20;14.20;99.90
24468;DHT22;12634;50.852;5.676;2023-05-10T01:30:08;14.10;99.90
24468;DHT22;12634;50.852;5.676;2023-05-10T01:32:43;14.10;99.90
24468;DHT22;12634;50.852;5.676;2023-05-10T01:35:17;14.10;99.90
24468;DHT22;12634;50.852;5.676;2023-05-10T01:37:50;14.10;99.90
24468;DHT22;12634;50.852;5.676;2023-05-10T01:40:25;14.10;99.90
24468;DHT22;12634;50.852;5.676;2023-05-10T01:43:00;14.00;99.90
24468;DHT22;12634;50.852;5.676;2023-05-10T01:45:31;14.00;99.90
24468;DHT22;12634;50.852;5.676;2023-05-10T01:48:06;14.00;99.90
24468;DHT22;12634;50.852;5.676;2023-05-10T01:50:35;14.00;99.90
24468;DHT22;12634;50.852;5.676;2023-05-10T01:53:06;14.00;99.90
24468;DHT22;12634;50.852;5.676;2023-05-10T01:55:35;14.00;99.90
24468;DHT22;12634;50.852;5.676;2023-05-10T01:58:07;14.00;99.90
24468;DHT22;12634;50.852;5.676;2023-05-10T02:00:36;13.90;99.90
24468;DHT22;12634;50.852;5.676;2023-05-10T02:03:08;13.90;99.90
24468;DHT22;12634;50.852;5.676;2023-05-10T02:05:37;13.90;99.90
24468;DHT22;12634;50.852;5.676;2023-05-10T02:08:06;13.90;99.90
24468;DHT22;12634;50.852;5.676;2023-05-10T02:10:34;13.80;99.90
24468;DHT22;12634;50.852;5.676;2023-05-10T02:13:03;13.80;99.90
24468;DHT22;12634;50.852;5.676;2023-05-10T02:15:32;13.80;99.90
24468;DHT22;12634;50.852;5.676;2023-05-10T02:18:00;13.80;99.90
24468;DHT22;12634;50.852;5.676;2023-05-10T02:20:31;13.80;99.90
24468;DHT22;12634;50.852;5.676;2023-05-10T02:22:59;13.70;99.90
24468;DHT22;12634;50.852;5.676;2023-05-10T02:25:28;13.70;99.90
24468;DHT22;12634;50.852;5.676;2023-05-10T02:27:57;13.70;99.90
24468;DHT22;12634;50.852;5.676;2023-05-10T02:30:27;13.60;99.90
24468;DHT22;12634;50.852;5.676;2023-05-10T02:32:54;13.60;99.90
24468;DHT22;12634;50.852;5.676;2023-05-10T02:35:26;13.60;99.90
24468;DHT22;12634;50.852;5.676;2023-05-10T02:37:55;13.50;99.90
24468;DHT22;12634;50.852;5.676;2023-05-10T02:40:24;13.50;99.90
24468;DHT22;12634;50.852;5.676;2023-05-10T02:42:54;13.50;99.90
24468;DHT22;12634;50.852;5.676;2023-05-10T02:45:25;13.50;99.90
24468;DHT22;12634;50.852;5.676;2023-05-10T02:47:55;13.50;99.90
24468;DHT22;12634;50.852;5.676;2023-05-10T02:50:22;13.50;99.90
24468;DHT22;12634;50.852;5.676;2023-05-10T02:52:56;13.50;99.90
24468;DHT22;12634;50.852;5.676;2023-05-10T02:55:32;13.50;99.90
24468;DHT22;12634;50.852;5.676;2023-05-10T02:58:01;13.50;99.90
24468;DHT22;12634;50.852;5.676;2023-05-10T03:00:28;13.60;99.90
24468;DHT22;12634;50.852;5.676;2023-05-10T03:02:55;13.50;99.90
24468;DHT22;12634;50.852;5.676;2023-05-10T03:05:23;13.50;99.90
24468;DHT22;12634;50.852;5.676;2023-05-10T03:07:50;13.50;99.90
24468;DHT22;12634;50.852;5.676;2023-05-10T03:10:19;13.50;99.90
24468;DHT22;12634;50.852;5.676;2023-05-10T03:12:59;13.50;99.90
24468;DHT22;12634;50.852;5.676;2023-05-10T03:15:37;13.50;99.90
24468;DHT22;12634;50.852;5.676;2023-05-10T03:18:10;13.50;99.90
24468;DHT22;12634;50.852;5.676;2023-05-10T03:20:42;13.50;99.90
24468;DHT22;12634;50.852;5.676;2023-05-10T03:23:13;13.50;99.90
24468;DHT22;12634;50.852;5.676;2023-05-10T03:25:48;13.40;99.90
24468;DHT22;12634;50.852;5.676;2023-05-10T03:28:16;13.50;99.90
24468;DHT22;12634;50.852;5.676;2023-05-10T03:30:45;13.50;99.90
24468;DHT22;12634;50.852;5.676;2023-05-10T03:33:12;13.50;99.90
24468;DHT22;12634;50.852;5.676;2023-05-10T03:35:40;13.50;99.90
24468;DHT22;12634;50.852;5.676;2023-05-10T03:38:07;13.40;99.90
24468;DHT22;12634;50.852;5.676;2023-05-10T03:40:34;13.40;99.90
24468;DHT22;12634;50.852;5.676;2023-05-10T03:43:02;13.50;99.90
24468;DHT22;12634;50.852;5.676;2023-05-10T03:45:29;13.50;99.90
24468;DHT22;12634;50.852;5.676;2023-05-10T03:47:57;13.50;99.90
24468;DHT22;12634;50.852;5.676;2023-05-10T03:50:24;13.50;99.90
24468;DHT22;12634;50.852;5.676;2023-05-10T03:52:51;13.50;99.90
24468;DHT22;12634;50.852;5.676;2023-05-10T03:55:19;13.50;99.90
24468;DHT22;12634;50.852;5.676;2023-05-10T03:57:46;13.50;99.90
24468;DHT22;12634;50.852;5.676;2023-05-10T04:00:16;13.50;99.90
24468;DHT22;12634;50.852;5.676;2023-05-10T04:02:43;13.50;99.90
24468;DHT22;12634;50.852;5.676;2023-05-10T04:05:11;13.50;99.90
24468;DHT22;12634;50.852;5.676;2023-05-10T04:07:38;13.50;99.90
24468;DHT22;12634;50.852;5.676;2023-05-10T04:10:06;13.50;99.90
24468;DHT22;12634;50.852;5.676;2023-05-10T04:12:33;13.60;99.90
24468;DHT22;12634;50.852;5.676;2023-05-10T04:15:00;13.60;99.90
24468;DHT22;12634;50.852;5.676;2023-05-10T04:17:28;13.50;99.90
24468;DHT22;12634;50.852;5.676;2023-05-10T04:19:56;13.50;99.90
24468;DHT22;12634;50.852;5.676;2023-05-10T04:22:24;13.50;99.90
24468;DHT22;12634;50.852;5.676;2023-05-10T04:24:51;13.60;99.90
24468;DHT22;12634;50.852;5.676;2023-05-10T04:27:18;13.60;99.90
24468;DHT22;12634;50.852;5.676;2023-05-10T04:29:45;13.60;99.90
24468;DHT22;12634;50.852;5.676;2023-05-10T04:32:12;13.60;99.90
24468;DHT22;12634;50.852;5.676;2023-05-10T04:34:40;13.60;99.90
24468;DHT22;12634;50.852;5.676;2023-05-10T04:37:08;13.60;99.90
24468;DHT22;12634;50.852;5.676;2023-05-10T04:39:35;13.60;99.90
24468;DHT22;12634;50.852;5.676;2023-05-10T04:42:03;13.60;99.90
24468;DHT22;12634;50.852;5.676;2023-05-10T04:44:31;13.70;99.90
24468;DHT22;12634;50.852;5.676;2023-05-10T04:46:58;13.60;99.90
24468;DHT22;12634;50.852;5.676;2023-05-10T04:49:25;13.70;99.90
24468;DHT22;12634;50.852;5.676;2023-05-10T04:51:54;13.70;99.90
24468;DHT22;12634;50.852;5.676;2023-05-10T04:54:21;13.60;99.90
24468;DHT22;12634;50.852;5.676;2023-05-10T04:56:48;13.60;99.90
24468;DHT22;12634;50.852;5.676;2023-05-10T04:59:15;13.60;99.90
24468;DHT22;12634;50.852;5.676;2023-05-10T05:01:42;13.60;99.90
24468;DHT22;12634;50.852;5.676;2023-05-10T05:04:09;13.60;99.90
24468;DHT22;12634;50.852;5.676;2023-05-10T05:06:37;13.60;99.90
24468;DHT22;12634;50.852;5.676;2023-05-10T05:09:05;13.60;99.90
24468;DHT22;12634;50.852;5.676;2023-05-10T05:11:32;13.60;99.90
24468;DHT22;12634;50.852;5.676;2023-05-10T05:13:59;13.70;99.90
24468;DHT22;12634;50.852;5.676;2023-05-10T05:16:26;13.70;99.90
24468;DHT22;12634;50.852;5.676;2023-05-10T05:18:53;13.70;99.90
24468;DHT22;12634;50.852;5.676;2023-05-10T05:21:21;13.70;99.90
24468;DHT22;12634;50.852;5.676;2023-05-10T05:23:49;13.60;99.90
24468;DHT22;12634;50.852;5.676;2023-05-10T05:26:18;13.70;99.90
24468;DHT22;12634;50.852;5.676;2023-05-10T05:28:45;13.70;99.90
24468;DHT22;12634;50.852;5.676;2023-05-10T05:31:14;13.70;99.90
24468;DHT22;12634;50.852;5.676;2023-05-10T05:33:41;13.80;99.90
24468;DHT22;12634;50.852;5.676;2023-05-10T05:36:08;13.80;99.90
24468;DHT22;12634;50.852;5.676;2023-05-10T05:38:35;13.80;99.90
24468;DHT22;12634;50.852;5.676;2023-05-10T05:41:03;13.80;99.90
24468;DHT22;12634;50.852;5.676;2023-05-10T05:43:31;13.80;99.90
24468;DHT22;12634;50.852;5.676;2023-05-10T05:45:58;13.80;99.90
24468;DHT22;12634;50.852;5.676;2023-05-10T05:48:25;13.80;99.90
24468;DHT22;12634;50.852;5.676;2023-05-10T05:50:54;13.80;99.90
24468;DHT22;12634;50.852;5.676;2023-05-10T05:53:22;13.70;99.90
24468;DHT22;12634;50.852;5.676;2023-05-10T05:55:53;13.70;99.90
24468;DHT22;12634;50.852;5.676;2023-05-10T05:58:21;13.80;99.90
24468;DHT22;12634;50.852;5.676;2023-05-10T06:00:49;13.70;99.90
24468;DHT22;12634;50.852;5.676;2023-05-10T06:03:17;13.80;99.90
24468;DHT22;12634;50.852;5.676;2023-05-10T06:05:45;13.70;99.90
24468;DHT22;12634;50.852;5.676;2023-05-10T06:08:12;13.80;99.90
24468;DHT22;12634;50.852;5.676;2023-05-10T06:10:39;13.80;99.90
24468;DHT22;12634;50.852;5.676;2023-05-10T06:13:06;13.80;99.90
24468;DHT22;12634;50.852;5.676;2023-05-10T06:15:33;13.80;99.90
24468;DHT22;12634;50.852;5.676;2023-05-10T06:18:01;13.80;99.90
24468;DHT22;12634;50.852;5.676;2023-05-10T06:20:28;13.80;99.90
24468;DHT22;12634;50.852;5.676;2023-05-10T06:22:57;13.80;99.90
24468;DHT22;12634;50.852;5.676;2023-05-10T06:25:24;13.80;99.90
24468;DHT22;12634;50.852;5.676;2023-05-10T06:27:51;13.70;99.90
24468;DHT22;12634;50.852;5.676;2023-05-10T06:30:24;13.70;99.90
24468;DHT22;12634;50.852;5.676;2023-05-10T06:32:54;13.60;99.90
24468;DHT22;12634;50.852;5.676;2023-05-10T06:35:23;13.60;99.90
24468;DHT22;12634;50.852;5.676;2023-05-10T06:37:50;13.60;99.90
24468;DHT22;12634;50.852;5.676;2023-05-10T06:40:18;13.70;99.90
24468;DHT22;12634;50.852;5.676;2023-05-10T06:42:45;13.70;99.90
24468;DHT22;12634;50.852;5.676;2023-05-10T06:45:13;13.70;99.90
24468;DHT22;12634;50.852;5.676;2023-05-10T06:47:41;13.80;99.90
24468;DHT22;12634;50.852;5.676;2023-05-10T06:50:08;13.80;99.90
24468;DHT22;12634;50.852;5.676;2023-05-10T06:52:38;13.70;99.90
24468;DHT22;12634;50.852;5.676;2023-05-10T06:55:06;13.70;99.90
24468;DHT22;12634;50.852;5.676;2023-05-10T06:57:34;13.60;99.90
24468;DHT22;12634;50.852;5.676;2023-05-10T07:00:01;13.60;99.90
24468;DHT22;12634;50.852;5.676;2023-05-10T07:02:29;13.70;99.90
24468;DHT22;12634;50.852;5.676;2023-05-10T07:04:56;13.50;99.90
24468;DHT22;12634;50.852;5.676;2023-05-10T07:07:23;13.60;99.90
24468;DHT22;12634;50.852;5.676;2023-05-10T07:09:52;13.50;99.90
24468;DHT22;12634;50.852;5.676;2023-05-10T07:12:19;13.60;99.90
24468;DHT22;12634;50.852;5.676;2023-05-10T07:14:46;13.60;99.90
24468;DHT22;12634;50.852;5.676;2023-05-10T07:17:13;13.60;99.90
24468;DHT22;12634;50.852;5.676;2023-05-10T07:19:41;13.60;99.90
24468;DHT22;12634;50.852;5.676;2023-05-10T07:22:08;13.60;99.90
24468;DHT22;12634;50.852;5.676;2023-05-10T07:24:35;13.60;99.90
24468;DHT22;12634;50.852;5.676;2023-05-10T07:27:03;13.60;99.90
24468;DHT22;12634;50.852;5.676;2023-05-10T07:29:31;13.50;99.90
24468;DHT22;12634;50.852;5.676;2023-05-10T07:31:58;13.50;99.90
24468;DHT22;12634;50.852;5.676;2023-05-10T07:34:25;13.50;99.90
24468;DHT22;12634;50.852;5.676;2023-05-10T07:36:53;13.50;99.90
24468;DHT22;12634;50.852;5.676;2023-05-10T07:39:21;13.40;99.90
24468;DHT22;12634;50.852;5.676;2023-05-10T07:41:48;13.40;99.90
24468;DHT22;12634;50.852;5.676;2023-05-10T07:44:16;13.30;99.90
24468;DHT22;12634;50.852;5.676;2023-05-10T07:46:44;13.10;99.90
24468;DHT22;12634;50.852;5.676;2023-05-10T07:49:11;13.10;99.90
24468;DHT22;12634;50.852;5.676;2023-05-10T07:51:39;13.00;99.90
24468;DHT22;12634;50.852;5.676;2023-05-10T07:54:06;12.90;99.90
24468;DHT22;12634;50.852;5.676;2023-05-10T07:56:33;12.90;99.90
24468;DHT22;12634;50.852;5.676;2023-05-10T07:59:00;12.80;99.90
24468;DHT22;12634;50.852;5.676;2023-05-10T08:01:32;12.80;99.90
24468;DHT22;12634;50.852;5.676;2023-05-10T08:03:59;12.80;99.90
24468;DHT22;12634;50.852;5.676;2023-05-10T08:06:27;12.80;99.90
24468;DHT22;12634;50.852;5.676;2023-05-10T08:08:55;12.80;99.90
24468;DHT22;12634;50.852;5.676;2023-05-10T08:11:23;12.80;99.90
24468;DHT22;12634;50.852;5.676;2023-05-10T08:13:51;12.70;99.90
24468;DHT22;12634;50.852;5.676;2023-05-10T08:16:18;12.80;99.90
24468;DHT22;12634;50.852;5.676;2023-05-10T08:18:47;12.80;99.90
24468;DHT22;12634;50.852;5.676;2023-05-10T08:21:14;12.80;99.90
24468;DHT22;12634;50.852;5.676;2023-05-10T08:23:42;12.80;99.90
24468;DHT22;12634;50.852;5.676;2023-05-10T08:26:09;12.90;99.90
24468;DHT22;12634;50.852;5.676;2023-05-10T08:28:37;12.90;99.90
24468;DHT22;12634;50.852;5.676;2023-05-10T08:31:05;13.00;99.90
24468;DHT22;12634;50.852;5.676;2023-05-10T08:33:32;12.90;99.90
24468;DHT22;12634;50.852;5.676;2023-05-10T08:36:01;12.90;99.90
24468;DHT22;12634;50.852;5.676;2023-05-10T08:38:28;13.00;99.90
24468;DHT22;12634;50.852;5.676;2023-05-10T08:40:55;13.00;99.90
24468;DHT22;12634;50.852;5.676;2023-05-10T08:43:27;13.00;99.90
24468;DHT22;12634;50.852;5.676;2023-05-10T08:45:56;13.00;99.90
24468;DHT22;12634;50.852;5.676;2023-05-10T08:48:24;13.00;99.90
24468;DHT22;12634;50.852;5.676;2023-05-10T08:50:53;13.00;99.90
24468;DHT22;12634;50.852;5.676;2023-05-10T08:53:24;13.10;99.90
24468;DHT22;12634;50.852;5.676;2023-05-10T08:55:53;12.90;99.90
24468;DHT22;12634;50.852;5.676;2023-05-10T08:58:21;13.00;99.90
24468;DHT22;12634;50.852;5.676;2023-05-10T09:00:49;13.00;99.90
24468;DHT22;12634;50.852;5.676;2023-05-10T09:03:18;13.10;99.90
24468;DHT22;12634;50.852;5.676;2023-05-10T09:05:45;13.10;99.90
24468;DHT22;12634;50.852;5.676;2023-05-10T09:08:13;13.20;99.90
24468;DHT22;12634;50.852;5.676;2023-05-10T09:10:43;13.40;99.90
24468;DHT22;12634;50.852;5.676;2023-05-10T09:13:13;13.50;99.90
24468;DHT22;12634;50.852;5.676;2023-05-10T09:15:41;13.60;99.90
24468;DHT22;12634;50.852;5.676;2023-05-10T09:18:08;13.50;99.90
24468;DHT22;12634;50.852;5.676;2023-05-10T09:20:35;13.70;99.90
24468;DHT22;12634;50.852;5.676;2023-05-10T09:23:02;14.00;99.90
24468;DHT22;12634;50.852;5.676;2023-05-10T09:25:30;14.30;99.90
24468;DHT22;12634;50.852;5.676;2023-05-10T09:28:00;14.60;99.90
24468;DHT22;12634;50.852;5.676;2023-05-10T09:30:29;14.30;99.90
24468;DHT22;12634;50.852;5.676;2023-05-10T09:32:58;14.10;99.90
24468;DHT22;12634;50.852;5.676;2023-05-10T09:35:27;13.90;99.90
24468;DHT22;12634;50.852;5.676;2023-05-10T09:38:03;14.10;99.90
24468;DHT22;12634;50.852;5.676;2023-05-10T09:40:30;14.10;99.90
24468;DHT22;12634;50.852;5.676;2023-05-10T09:43:00;14.10;99.90
24468;DHT22;12634;50.852;5.676;2023-05-10T09:45:29;14.40;99.90
24468;DHT22;12634;50.852;5.676;2023-05-10T09:47:57;14.90;99.90
24468;DHT22;12634;50.852;5.676;2023-05-10T09:50:25;14.80;99.90
24468;DHT22;12634;50.852;5.676;2023-05-10T09:52:54;14.60;99.90
24468;DHT22;12634;50.852;5.676;2023-05-10T09:55:23;14.70;99.90
24468;DHT22;12634;50.852;5.676;2023-05-10T09:58:00;15.10;99.90
24468;DHT22;12634;50.852;5.676;2023-05-10T10:00:28;14.90;99.90
24468;DHT22;12634;50.852;5.676;2023-05-10T10:02:56;14.60;99.90
24468;DHT22;12634;50.852;5.676;2023-05-10T10:05:28;14.40;99.90
24468;DHT22;12634;50.852;5.676;2023-05-10T10:07:56;14.20;99.90
24468;DHT22;12634;50.852;5.676;2023-05-10T10:10:24;14.60;99.90
24468;DHT22;12634;50.852;5.676;2023-05-10T10:12:51;14.90;99.90
24468;DHT22;12634;50.852;5.676;2023-05-10T10:15:20;14.70;99.90
24468;DHT22;12634;50.852;5.676;2023-05-10T10:17:49;14.80;99.90
24468;DHT22;12634;50.852;5.676;2023-05-10T10:20:17;14.70;99.90
24468;DHT22;12634;50.852;5.676;2023-05-10T10:22:44;14.60;99.90
24468;DHT22;12634;50.852;5.676;2023-05-10T10:25:13;14.60;99.90
24468;DHT22;12634;50.852;5.676;2023-05-10T10:27:47;14.60;99.90
24468;DHT22;12634;50.852;5.676;2023-05-10T10:30:25;14.20;99.90
24468;DHT22;12634;50.852;5.676;2023-05-10T10:33:08;14.30;99.90
24468;DHT22;12634;50.852;5.676;2023-05-10T10:35:39;14.50;99.90
24468;DHT22;12634;50.852;5.676;2023-05-10T10:38:08;14.30;99.90
24468;DHT22;12634;50.852;5.676;2023-05-10T10:40:36;14.20;99.90
24468;DHT22;12634;50.852;5.676;2023-05-10T10:43:23;14.30;99.90
24468;DHT22;12634;50.852;5.676;2023-05-10T10:46:14;14.20;99.90
24468;DHT22;12634;50.852;5.676;2023-05-10T10:48:48;14.10;99.90
24468;DHT22;12634;50.852;5.676;2023-05-10T10:51:17;14.20;99.90
24468;DHT22;12634;50.852;5.676;2023-05-10T10:53:44;14.40;99.90
24468;DHT22;12634;50.852;5.676;2023-05-10T10:56:12;14.30;99.90
24468;DHT22;12634;50.852;5.676;2023-05-10T10:58:42;14.70;99.90
24468;DHT22;12634;50.852;5.676;2023-05-10T11:01:18;15.00;99.90
24468;DHT22;12634;50.852;5.676;2023-05-10T11:04:18;14.80;99.90
24468;DHT22;12634;50.852;5.676;2023-05-10T11:06:46;14.50;99.90
24468;DHT22;12634;50.852;5.676;2023-05-10T11:09:13;14.40;99.90
24468;DHT22;12634;50.852;5.676;2023-05-10T11:11:52;14.50;99.90
24468;DHT22;12634;50.852;5.676;2023-05-10T11:14:22;14.50;99.90
24468;DHT22;12634;50.852;5.676;2023-05-10T11:16:51;14.30;99.90
24468;DHT22;12634;50.852;5.676;2023-05-10T11:19:18;14.50;99.90
24468;DHT22;12634;50.852;5.676;2023-05-10T11:21:47;14.60;99.90
24468;DHT22;12634;50.852;5.676;2023-05-10T11:24:16;14.50;99.90
24468;DHT22;12634;50.852;5.676;2023-05-10T11:26:43;14.50;99.90
24468;DHT22;12634;50.852;5.676;2023-05-10T11:29:12;14.60;99.90
24468;DHT22;12634;50.852;5.676;2023-05-10T11:31:43;14.40;99.90
24468;DHT22;12634;50.852;5.676;2023-05-10T11:34:15;14.30;99.90
24468;DHT22;12634;50.852;5.676;2023-05-10T11:36:51;14.50;99.90
24468;DHT22;12634;50.852;5.676;2023-05-10T11:39:19;14.80;99.90
24468;DHT22;12634;50.852;5.676;2023-05-10T11:41:48;15.10;99.90
24468;DHT22;12634;50.852;5.676;2023-05-10T11:44:16;15.10;99.90
24468;DHT22;12634;50.852;5.676;2023-05-10T11:46:43;15.60;99.90
24468;DHT22;12634;50.852;5.676;2023-05-10T11:49:12;15.60;99.90
24468;DHT22;12634;50.852;5.676;2023-05-10T11:51:39;16.10;99.90
24468;DHT22;12634;50.852;5.676;2023-05-10T11:54:09;16.10;99.90
24468;DHT22;12634;50.852;5.676;2023-05-10T11:56:37;15.90;99.90
24468;DHT22;12634;50.852;5.676;2023-05-10T11:59:04;16.30;99.90
24468;DHT22;12634;50.852;5.676;2023-05-10T12:01:31;16.50;99.90
24468;DHT22;12634;50.852;5.676;2023-05-10T12:03:59;15.80;99.90
24468;DHT22;12634;50.852;5.676;2023-05-10T12:06:30;16.40;99.90
24468;DHT22;12634;50.852;5.676;2023-05-10T12:08:57;16.40;99.90
24468;DHT22;12634;50.852;5.676;2023-05-10T12:11:25;16.10;99.90
24468;DHT22;12634;50.852;5.676;2023-05-10T12:13:53;16.70;99.90
24468;DHT22;12634;50.852;5.676;2023-05-10T12:16:21;16.50;99.90
24468;DHT22;12634;50.852;5.676;2023-05-10T12:18:49;16.40;99.90
24468;DHT22;12634;50.852;5.676;2023-05-10T12:21:17;16.80;99.90
24468;DHT22;12634;50.852;5.676;2023-05-10T12:23:48;16.60;99.90
24468;DHT22;12634;50.852;5.676;2023-05-10T12:26:15;16.70;99.90
24468;DHT22;12634;50.852;5.676;2023-05-10T12:28:42;16.60;99.90
24468;DHT22;12634;50.852;5.676;2023-05-10T12:31:10;16.90;99.90
24468;DHT22;12634;50.852;5.676;2023-05-10T12:33:37;16.70;99.90
24468;DHT22;12634;50.852;5.676;2023-05-10T12:36:07;16.20;99.90
24468;DHT22;12634;50.852;5.676;2023-05-10T12:38:36;16.30;99.90
24468;DHT22;12634;50.852;5.676;2023-05-10T12:41:08;16.40;99.90
24468;DHT22;12634;50.852;5.676;2023-05-10T12:43:36;16.50;99.90
24468;DHT22;12634;50.852;5.676;2023-05-10T12:46:05;16.50;99.90
24468;DHT22;12634;50.852;5.676;2023-05-10T12:48:33;16.60;99.90
24468;DHT22;12634;50.852;5.676;2023-05-10T12:51:00;16.70;99.90
24468;DHT22;12634;50.852;5.676;2023-05-10T12:53:28;16.60;99.90
24468;DHT22;12634;50.852;5.676;2023-05-10T12:55:55;17.10;99.90
24468;DHT22;12634;50.852;5.676;2023-05-10T12:58:24;17.30;99.90
24468;DHT22;12634;50.852;5.676;2023-05-10T13:00:51;17.00;99.90
24468;DHT22;12634;50.852;5.676;2023-05-10T13:03:19;16.50;99.90
24468;DHT22;12634;50.852;5.676;2023-05-10T13:05:46;16.60;99.90
24468;DHT22;12634;50.852;5.676;2023-05-10T13:08:13;16.70;99.90
24468;DHT22;12634;50.852;5.676;2023-05-10T13:10:40;16.60;99.90
24468;DHT22;12634;50.852;5.676;2023-05-10T13:13:07;16.30;99.90
24468;DHT22;12634;50.852;5.676;2023-05-10T13:15:36;16.20;99.90
24468;DHT22;12634;50.852;5.676;2023-05-10T13:18:04;16.00;99.90
24468;DHT22;12634;50.852;5.676;2023-05-10T13:20:31;15.90;99.90
24468;DHT22;12634;50.852;5.676;2023-05-10T13:22:58;16.00;99.90
24468;DHT22;12634;50.852;5.676;2023-05-10T13:25:25;15.80;99.90
24468;DHT22;12634;50.852;5.676;2023-05-10T13:27:53;15.90;99.90
24468;DHT22;12634;50.852;5.676;2023-05-10T13:30:20;16.20;99.90
24468;DHT22;12634;50.852;5.676;2023-05-10T13:32:49;16.20;99.90
24468;DHT22;12634;50.852;5.676;2023-05-10T13:35:16;16.60;99.90
24468;DHT22;12634;50.852;5.676;2023-05-10T13:37:43;16.40;99.90
24468;DHT22;12634;50.852;5.676;2023-05-10T13:40:10;16.10;99.90
24468;DHT22;12634;50.852;5.676;2023-05-10T13:42:38;16.40;99.90
24468;DHT22;12634;50.852;5.676;2023-05-10T13:45:06;16.20;99.90
24468;DHT22;12634;50.852;5.676;2023-05-10T13:47:33;16.20;99.90
24468;DHT22;12634;50.852;5.676;2023-05-10T13:50:02;16.20;99.90
24468;DHT22;12634;50.852;5.676;2023-05-10T13:52:30;16.10;99.90
24468;DHT22;12634;50.852;5.676;2023-05-10T13:54:57;16.10;99.90
24468;DHT22;12634;50.852;5.676;2023-05-10T13:57:24;16.10;99.90
24468;DHT22;12634;50.852;5.676;2023-05-10T13:59:51;16.20;99.90
24468;DHT22;12634;50.852;5.676;2023-05-10T14:02:18;16.50;99.90
24468;DHT22;12634;50.852;5.676;2023-05-10T14:04:46;16.30;99.90
24468;DHT22;12634;50.852;5.676;2023-05-10T14:07:15;16.10;99.90
24468;DHT22;12634;50.852;5.676;2023-05-10T14:09:43;16.10;99.90
24468;DHT22;12634;50.852;5.676;2023-05-10T14:12:10;16.30;99.90
24468;DHT22;12634;50.852;5.676;2023-05-10T14:14:37;16.30;99.90
24468;DHT22;12634;50.852;5.676;2023-05-10T14:17:05;16.60;99.90
24468;DHT22;12634;50.852;5.676;2023-05-10T14:19:32;16.80;99.90
24468;DHT22;12634;50.852;5.676;2023-05-10T14:21:59;17.00;99.90
24468;DHT22;12634;50.852;5.676;2023-05-10T14:24:28;16.90;99.90
24468;DHT22;12634;50.852;5.676;2023-05-10T14:26:55;16.80;99.90
24468;DHT22;12634;50.852;5.676;2023-05-10T14:29:22;16.60;99.90
24468;DHT22;12634;50.852;5.676;2023-05-10T14:31:50;16.50;99.90
24468;DHT22;12634;50.852;5.676;2023-05-10T14:34:17;16.70;99.90
24468;DHT22;12634;50.852;5.676;2023-05-10T14:36:44;17.00;99.90
24468;DHT22;12634;50.852;5.676;2023-05-10T14:39:11;17.30;99.90
24468;DHT22;12634;50.852;5.676;2023-05-10T14:41:40;17.70;99.90
24468;DHT22;12634;50.852;5.676;2023-05-10T14:44:08;18.20;99.90
24468;DHT22;12634;50.852;5.676;2023-05-10T14:46:35;19.10;99.90
24468;DHT22;12634;50.852;5.676;2023-05-10T14:49:03;20.30;99.90
24468;DHT22;12634;50.852;5.676;2023-05-10T14:51:30;21.00;99.90
24468;DHT22;12634;50.852;5.676;2023-05-10T14:53:57;21.00;99.90
24468;DHT22;12634;50.852;5.676;2023-05-10T14:56:24;20.50;99.90
24468;DHT22;12634;50.852;5.676;2023-05-10T14:58:54;19.50;99.90
24468;DHT22;12634;50.852;5.676;2023-05-10T15:01:21;19.50;99.90
24468;DHT22;12634;50.852;5.676;2023-05-10T15:03:49;18.80;99.90
24468;DHT22;12634;50.852;5.676;2023-05-10T15:06:16;18.10;99.90
24468;DHT22;12634;50.852;5.676;2023-05-10T15:08:43;17.90;99.90
24468;DHT22;12634;50.852;5.676;2023-05-10T15:11:10;17.50;99.90
24468;DHT22;12634;50.852;5.676;2023-05-10T15:13:37;17.70;99.90
24468;DHT22;12634;50.852;5.676;2023-05-10T15:16:06;17.80;99.90
24468;DHT22;12634;50.852;5.676;2023-05-10T15:18:33;17.60;99.90
24468;DHT22;12634;50.852;5.676;2023-05-10T15:21:00;17.20;99.90
24468;DHT22;12634;50.852;5.676;2023-05-10T15:23:27;17.00;99.90
24468;DHT22;12634;50.852;5.676;2023-05-10T15:25:55;16.90;99.90
24468;DHT22;12634;50.852;5.676;2023-05-10T15:28:22;17.00;99.90
24468;DHT22;12634;50.852;5.676;2023-05-10T15:30:50;17.00;99.90
24468;DHT22;12634;50.852;5.676;2023-05-10T15:33:18;16.80;99.90
24468;DHT22;12634;50.852;5.676;2023-05-10T15:35:45;17.00;99.90
24468;DHT22;12634;50.852;5.676;2023-05-10T15:38:12;17.20;99.90
24468;DHT22;12634;50.852;5.676;2023-05-10T15:40:39;17.10;99.90